UAL79 KTUS-KSAN
Flight info
| Callsign | UAL79 |
|---|---|
| Flight time | 1h 7m |
| Altitude | 40000 |
| Route | WLDKT4 GBN J2 HOGGZ LUCKI1 |
| Aircraft | B736/M-SDE2E3FGHIRWXY/LB1 |
Departure
| Time | 2026-04-24 02:30 |
|---|---|
| Airport | Tucson International Airport (KTUS) |
Arrival
| Time | 2026-04-24 03:37 |
|---|---|
| Airport | San Diego International Airport (KSAN) |
| Time | Latitude | Longitude | Altitude | Speed | Heading |
|---|---|---|---|---|---|
| 2026-04-24 02:02 | 32.11900 | -110.93654 | 2604 ft | 0 kts | 269° |
| 2026-04-24 02:18 | 32.11901 | -110.93638 | 2604 ft | 2 kts | 270° |
| 2026-04-24 02:19 | 32.11901 | -110.93618 | 2604 ft | 2 kts | 268° |
| 2026-04-24 02:19 | 32.11902 | -110.93599 | 2605 ft | 2 kts | 261° |
| 2026-04-24 02:19 | 32.11906 | -110.93584 | 2605 ft | 1 kts | 224° |
| 2026-04-24 02:19 | 32.11907 | -110.93584 | 2605 ft | 0 kts | 224° |
| 2026-04-24 02:21 | 32.11882 | -110.93575 | 2605 ft | 6 kts | 146° |
| 2026-04-24 02:21 | 32.11846 | -110.93562 | 2605 ft | 6 kts | 190° |
| 2026-04-24 02:21 | 32.11816 | -110.93590 | 2605 ft | 6 kts | 226° |
| 2026-04-24 02:22 | 32.11789 | -110.93622 | 2604 ft | 5 kts | 225° |
| 2026-04-24 02:22 | 32.11763 | -110.93654 | 2604 ft | 5 kts | 226° |
| 2026-04-24 02:22 | 32.11749 | -110.93694 | 2603 ft | 5 kts | 271° |
| 2026-04-24 02:22 | 32.11760 | -110.93737 | 2602 ft | 6 kts | 293° |
| 2026-04-24 02:23 | 32.11764 | -110.93764 | 2602 ft | 0 kts | 274° |
| 2026-04-24 02:23 | 32.11761 | -110.93788 | 2602 ft | 7 kts | 251° |
| 2026-04-24 02:23 | 32.11726 | -110.93818 | 2602 ft | 7 kts | 183° |
| 2026-04-24 02:24 | 32.11686 | -110.93781 | 2604 ft | 9 kts | 135° |
| 2026-04-24 02:24 | 32.11641 | -110.93730 | 2605 ft | 9 kts | 135° |
| 2026-04-24 02:24 | 32.11596 | -110.93677 | 2605 ft | 11 kts | 135° |
| 2026-04-24 02:24 | 32.11524 | -110.93593 | 2606 ft | 16 kts | 135° |
| 2026-04-24 02:25 | 32.11436 | -110.93490 | 2609 ft | 19 kts | 135° |
| 2026-04-24 02:25 | 32.11340 | -110.93378 | 2608 ft | 21 kts | 134° |
| 2026-04-24 02:25 | 32.11226 | -110.93243 | 2610 ft | 23 kts | 135° |
| 2026-04-24 02:25 | 32.11115 | -110.93113 | 2605 ft | 22 kts | 135° |
| 2026-04-24 02:26 | 32.11006 | -110.92985 | 2605 ft | 22 kts | 135° |
| 2026-04-24 02:26 | 32.10902 | -110.92863 | 2605 ft | 21 kts | 135° |
| 2026-04-24 02:26 | 32.10800 | -110.92743 | 2608 ft | 20 kts | 134° |
| 2026-04-24 02:26 | 32.10701 | -110.92627 | 2609 ft | 20 kts | 135° |
| 2026-04-24 02:27 | 32.10605 | -110.92514 | 2611 ft | 19 kts | 135° |
| 2026-04-24 02:27 | 32.10512 | -110.92405 | 2610 ft | 19 kts | 134° |
| 2026-04-24 02:27 | 32.10423 | -110.92299 | 2609 ft | 18 kts | 135° |
| 2026-04-24 02:27 | 32.10336 | -110.92198 | 2608 ft | 17 kts | 138° |
| 2026-04-24 02:28 | 32.10244 | -110.92248 | 2607 ft | 16 kts | 231° |
| 2026-04-24 02:28 | 32.10231 | -110.92325 | 2607 ft | 10 kts | 303° |
| 2026-04-24 02:28 | 32.10251 | -110.92350 | 2608 ft | 0 kts | 315° |
| 2026-04-24 02:29 | 32.10381 | -110.92500 | 2609 ft | 64 kts | 315° |
| 2026-04-24 02:29 | 32.10866 | -110.93069 | 2606 ft | 132 kts | 314° |
| 2026-04-24 02:29 | 32.11635 | -110.93923 | 2911 ft | 162 kts | 317° |
| 2026-04-24 02:30 | 32.12449 | -110.94799 | 3883 ft | 157 kts | 317° |
| 2026-04-24 02:30 | 32.13303 | -110.95690 | 4517 ft | 171 kts | 318° |
| 2026-04-24 02:30 | 32.14284 | -110.96705 | 4997 ft | 204 kts | 315° |
| 2026-04-24 02:30 | 32.15333 | -110.97898 | 5831 ft | 207 kts | 313° |
| 2026-04-24 02:31 | 32.16290 | -110.99035 | 7113 ft | 183 kts | 311° |
| 2026-04-24 02:31 | 32.17138 | -111.00081 | 8240 ft | 175 kts | 309° |
| 2026-04-24 02:31 | 32.18002 | -111.01192 | 8840 ft | 195 kts | 308° |
| 2026-04-24 02:31 | 32.18942 | -111.02472 | 9272 ft | 215 kts | 307° |
| 2026-04-24 02:32 | 32.19882 | -111.03821 | 10194 ft | 205 kts | 306° |
| 2026-04-24 02:32 | 32.20714 | -111.05039 | 11321 ft | 182 kts | 304° |
| 2026-04-24 02:32 | 32.21498 | -111.06202 | 12071 ft | 185 kts | 302° |
| 2026-04-24 02:32 | 32.22294 | -111.07513 | 12357 ft | 208 kts | 299° |
| 2026-04-24 02:33 | 32.23085 | -111.08995 | 12949 ft | 212 kts | 295° |
| 2026-04-24 02:33 | 32.23775 | -111.10450 | 14028 ft | 193 kts | 293° |
| 2026-04-24 02:33 | 32.24357 | -111.11835 | 14820 ft | 187 kts | 292° |
| 2026-04-24 02:33 | 32.24961 | -111.13266 | 15221 ft | 203 kts | 293° |
| 2026-04-24 02:34 | 32.25654 | -111.14796 | 15601 ft | 216 kts | 295° |
| 2026-04-24 02:34 | 32.26395 | -111.16329 | 16355 ft | 210 kts | 297° |
| 2026-04-24 02:34 | 32.27113 | -111.17776 | 17270 ft | 200 kts | 297° |
| 2026-04-24 02:34 | 32.27814 | -111.19205 | 17863 ft | 206 kts | 295° |
| 2026-04-24 02:35 | 32.28097 | -111.20922 | 18008 ft | 226 kts | 266° |
| 2026-04-24 02:35 | 32.27949 | -111.22866 | 18186 ft | 248 kts | 267° |
| 2026-04-24 02:35 | 32.27857 | -111.24960 | 18351 ft | 268 kts | 269° |
| 2026-04-24 02:35 | 32.27815 | -111.27198 | 18759 ft | 276 kts | 270° |
| 2026-04-24 02:36 | 32.27811 | -111.29475 | 19356 ft | 277 kts | 271° |
| 2026-04-24 02:36 | 32.27833 | -111.31740 | 20003 ft | 276 kts | 271° |
| 2026-04-24 02:36 | 32.27872 | -111.34012 | 20628 ft | 276 kts | 271° |
| 2026-04-24 02:36 | 32.27922 | -111.36289 | 21217 ft | 278 kts | 272° |
| 2026-04-24 02:37 | 32.27978 | -111.38574 | 21806 ft | 279 kts | 272° |
| 2026-04-24 02:37 | 32.28037 | -111.40880 | 22401 ft | 281 kts | 271° |
| 2026-04-24 02:37 | 32.28096 | -111.43194 | 23002 ft | 282 kts | 271° |
| 2026-04-24 02:37 | 32.28268 | -111.45503 | 23536 ft | 285 kts | 282° |
| 2026-04-24 02:38 | 32.28996 | -111.47692 | 24018 ft | 290 kts | 295° |
| 2026-04-24 02:38 | 32.30066 | -111.49724 | 24499 ft | 292 kts | 298° |
| 2026-04-24 02:38 | 32.31203 | -111.51726 | 24976 ft | 294 kts | 299° |
| 2026-04-24 02:38 | 32.32359 | -111.53731 | 25453 ft | 297 kts | 299° |
| 2026-04-24 02:39 | 32.33528 | -111.55762 | 25911 ft | 299 kts | 299° |
| 2026-04-24 02:39 | 32.34692 | -111.57794 | 26382 ft | 301 kts | 298° |
| 2026-04-24 02:39 | 32.35865 | -111.59853 | 26841 ft | 303 kts | 298° |
| 2026-04-24 02:39 | 32.37044 | -111.61930 | 27299 ft | 305 kts | 298° |
| 2026-04-24 02:40 | 32.38228 | -111.64023 | 27742 ft | 307 kts | 298° |
| 2026-04-24 02:40 | 32.39443 | -111.66183 | 27870 ft | 325 kts | 298° |
| 2026-04-24 02:40 | 32.40729 | -111.68478 | 28017 ft | 343 kts | 298° |
| 2026-04-24 02:40 | 32.42079 | -111.70888 | 28139 ft | 360 kts | 298° |
| 2026-04-24 02:41 | 32.43495 | -111.73413 | 28252 ft | 376 kts | 299° |
| 2026-04-24 02:41 | 32.44947 | -111.76001 | 28463 ft | 386 kts | 299° |
| 2026-04-24 02:41 | 32.46437 | -111.78650 | 29093 ft | 386 kts | 299° |
| 2026-04-24 02:41 | 32.47925 | -111.81295 | 29676 ft | 384 kts | 299° |
| 2026-04-24 02:42 | 32.49395 | -111.83909 | 30214 ft | 378 kts | 298° |
| 2026-04-24 02:42 | 32.50843 | -111.86486 | 30753 ft | 373 kts | 298° |
| 2026-04-24 02:42 | 32.52274 | -111.89043 | 31288 ft | 371 kts | 298° |
| 2026-04-24 02:42 | 32.53693 | -111.91582 | 31827 ft | 369 kts | 298° |
| 2026-04-24 02:43 | 32.55106 | -111.94112 | 32385 ft | 366 kts | 298° |
| 2026-04-24 02:43 | 32.56508 | -111.96624 | 32934 ft | 363 kts | 298° |
| 2026-04-24 02:43 | 32.57896 | -111.99113 | 33511 ft | 360 kts | 298° |
| 2026-04-24 02:43 | 32.59268 | -112.01577 | 34061 ft | 357 kts | 297° |
| 2026-04-24 02:44 | 32.60627 | -112.04017 | 34569 ft | 353 kts | 297° |
| 2026-04-24 02:44 | 32.61960 | -112.06412 | 35077 ft | 350 kts | 297° |
| 2026-04-24 02:44 | 32.63298 | -112.08818 | 35606 ft | 347 kts | 297° |
| 2026-04-24 02:44 | 32.64620 | -112.11196 | 36144 ft | 343 kts | 296° |
| 2026-04-24 02:45 | 32.65922 | -112.13537 | 36674 ft | 338 kts | 296° |
| 2026-04-24 02:45 | 32.67206 | -112.15849 | 37241 ft | 332 kts | 295° |
| 2026-04-24 02:45 | 32.68466 | -112.18118 | 37819 ft | 326 kts | 295° |
| 2026-04-24 02:45 | 32.69705 | -112.20350 | 38438 ft | 320 kts | 295° |
| 2026-04-24 02:46 | 32.70919 | -112.22534 | 38951 ft | 313 kts | 295° |
| 2026-04-24 02:46 | 32.72100 | -112.24664 | 39439 ft | 305 kts | 295° |
| 2026-04-24 02:46 | 32.73248 | -112.26745 | 39588 ft | 308 kts | 295° |
| 2026-04-24 02:46 | 32.74446 | -112.28926 | 39614 ft | 314 kts | 295° |
| 2026-04-24 02:47 | 32.76854 | -112.33303 | 39758 ft | 323 kts | 295° |
| 2026-04-24 02:47 | 32.79347 | -112.37825 | 39873 ft | 332 kts | 295° |
| 2026-04-24 02:48 | 32.81916 | -112.42488 | 39886 ft | 343 kts | 296° |
| 2026-04-24 02:48 | 32.84557 | -112.47281 | 39864 ft | 348 kts | 296° |
| 2026-04-24 02:49 | 32.87220 | -112.52117 | 39878 ft | 349 kts | 296° |
| 2026-04-24 02:49 | 32.89885 | -112.56968 | 39894 ft | 351 kts | 296° |
| 2026-04-24 02:50 | 32.92536 | -112.61801 | 39889 ft | 351 kts | 296° |
| 2026-04-24 02:50 | 32.94707 | -112.66882 | 39902 ft | 338 kts | 279° |
| 2026-04-24 02:51 | 32.95013 | -112.72394 | 39891 ft | 334 kts | 263° |
| 2026-04-24 02:51 | 32.94302 | -112.77865 | 39888 ft | 333 kts | 261° |
| 2026-04-24 02:52 | 32.93520 | -112.83294 | 39883 ft | 332 kts | 261° |
| 2026-04-24 02:52 | 32.92766 | -112.88685 | 39882 ft | 331 kts | 261° |
| 2026-04-24 02:53 | 32.92025 | -112.94094 | 39876 ft | 330 kts | 262° |
| 2026-04-24 02:53 | 32.91292 | -112.99483 | 39872 ft | 330 kts | 262° |
| 2026-04-24 02:54 | 32.90560 | -113.04873 | 39871 ft | 329 kts | 262° |
| 2026-04-24 02:54 | 32.89826 | -113.10259 | 39865 ft | 329 kts | 262° |
| 2026-04-24 02:55 | 32.89094 | -113.15615 | 39859 ft | 330 kts | 261° |
| 2026-04-24 02:55 | 32.88356 | -113.21001 | 39857 ft | 330 kts | 261° |
| 2026-04-24 02:56 | 32.87613 | -113.26400 | 39861 ft | 331 kts | 261° |
| 2026-04-24 02:56 | 32.86867 | -113.31812 | 39857 ft | 332 kts | 261° |
| 2026-04-24 02:57 | 32.86118 | -113.37224 | 39857 ft | 332 kts | 261° |
| 2026-04-24 02:57 | 32.85364 | -113.42653 | 39858 ft | 332 kts | 261° |
| 2026-04-24 02:58 | 32.84608 | -113.48078 | 39850 ft | 332 kts | 261° |
| 2026-04-24 02:58 | 32.83851 | -113.53493 | 39857 ft | 332 kts | 261° |
| 2026-04-24 02:59 | 32.83094 | -113.58895 | 39855 ft | 332 kts | 261° |
| 2026-04-24 02:59 | 32.82333 | -113.64312 | 39859 ft | 333 kts | 261° |
| 2026-04-24 03:00 | 32.82055 | -113.66284 | 39859 ft | 333 kts | 261° |
| 2026-04-24 03:00 | 32.81285 | -113.71704 | 39864 ft | 333 kts | 261° |
| 2026-04-24 03:01 | 32.80504 | -113.77129 | 39861 ft | 333 kts | 261° |
| 2026-04-24 03:01 | 32.79722 | -113.82546 | 39864 ft | 332 kts | 261° |
| 2026-04-24 03:02 | 32.78945 | -113.87927 | 39862 ft | 332 kts | 261° |
| 2026-04-24 03:02 | 32.78162 | -113.93331 | 39863 ft | 332 kts | 261° |
| 2026-04-24 03:03 | 32.77553 | -113.98762 | 39858 ft | 332 kts | 268° |
| 2026-04-24 03:03 | 32.77520 | -114.03361 | 39866 ft | 335 kts | 268° |
| 2026-04-24 03:04 | 32.77535 | -114.08927 | 39871 ft | 340 kts | 270° |
| 2026-04-24 03:04 | 32.77772 | -114.14527 | 39861 ft | 337 kts | 271° |
| 2026-04-24 03:05 | 32.78017 | -114.20060 | 39857 ft | 334 kts | 271° |
| 2026-04-24 03:05 | 32.78240 | -114.25554 | 39863 ft | 331 kts | 270° |
| 2026-04-24 03:06 | 32.78451 | -114.30972 | 39886 ft | 330 kts | 271° |
| 2026-04-24 03:06 | 32.78662 | -114.36513 | 39876 ft | 341 kts | 271° |
| 2026-04-24 03:07 | 32.79615 | -114.42070 | 39890 ft | 346 kts | 283° |
| 2026-04-24 03:07 | 32.81142 | -114.47440 | 39877 ft | 341 kts | 283° |
| 2026-04-24 03:08 | 32.83082 | -114.54380 | 39874 ft | 338 kts | 283° |
| 2026-04-24 03:09 | 32.84530 | -114.59643 | 39873 ft | 336 kts | 283° |
| 2026-04-24 03:09 | 32.85979 | -114.64932 | 39871 ft | 336 kts | 283° |
| 2026-04-24 03:10 | 32.87430 | -114.70245 | 39412 ft | 346 kts | 282° |
| 2026-04-24 03:10 | 32.87916 | -114.73049 | 38912 ft | 342 kts | 272° |
| 2026-04-24 03:10 | 32.87957 | -114.75883 | 38244 ft | 342 kts | 268° |
| 2026-04-24 03:10 | 32.87885 | -114.78713 | 37554 ft | 343 kts | 267° |
| 2026-04-24 03:11 | 32.87798 | -114.81537 | 37088 ft | 339 kts | 267° |
| 2026-04-24 03:11 | 32.87714 | -114.84295 | 36590 ft | 337 kts | 267° |
| 2026-04-24 03:11 | 32.87637 | -114.87062 | 36133 ft | 334 kts | 267° |
| 2026-04-24 03:11 | 32.87566 | -114.89816 | 35679 ft | 331 kts | 267° |
| 2026-04-24 03:12 | 32.87498 | -114.92544 | 35220 ft | 329 kts | 267° |
| 2026-04-24 03:12 | 32.87434 | -114.95264 | 34770 ft | 328 kts | 267° |
| 2026-04-24 03:12 | 32.87370 | -114.97968 | 34327 ft | 326 kts | 267° |
| 2026-04-24 03:12 | 32.87306 | -115.00671 | 33864 ft | 326 kts | 267° |
| 2026-04-24 03:13 | 32.87243 | -115.03363 | 33367 ft | 324 kts | 267° |
| 2026-04-24 03:13 | 32.87180 | -115.06039 | 32927 ft | 323 kts | 267° |
| 2026-04-24 03:13 | 32.87116 | -115.08707 | 32469 ft | 322 kts | 267° |
| 2026-04-24 03:13 | 32.87053 | -115.11337 | 32032 ft | 321 kts | 267° |
| 2026-04-24 03:14 | 32.86989 | -115.13987 | 31605 ft | 320 kts | 267° |
| 2026-04-24 03:14 | 32.86925 | -115.16620 | 31184 ft | 318 kts | 267° |
| 2026-04-24 03:14 | 32.86860 | -115.19251 | 30771 ft | 317 kts | 267° |
| 2026-04-24 03:14 | 32.86795 | -115.21872 | 30359 ft | 317 kts | 267° |
| 2026-04-24 03:15 | 32.86730 | -115.24493 | 29945 ft | 316 kts | 267° |
| 2026-04-24 03:15 | 32.86664 | -115.27103 | 29462 ft | 315 kts | 267° |
| 2026-04-24 03:15 | 32.86598 | -115.29702 | 29006 ft | 313 kts | 267° |
| 2026-04-24 03:15 | 32.86531 | -115.32292 | 28552 ft | 311 kts | 267° |
| 2026-04-24 03:16 | 32.86434 | -115.34855 | 28105 ft | 310 kts | 263° |
| 2026-04-24 03:16 | 32.86117 | -115.37388 | 27678 ft | 308 kts | 260° |
| 2026-04-24 03:16 | 32.85726 | -115.39895 | 27262 ft | 306 kts | 260° |
| 2026-04-24 03:16 | 32.85352 | -115.42346 | 26863 ft | 305 kts | 260° |
| 2026-04-24 03:17 | 32.84992 | -115.44823 | 26464 ft | 303 kts | 261° |
| 2026-04-24 03:17 | 32.84641 | -115.47293 | 26069 ft | 302 kts | 261° |
| 2026-04-24 03:17 | 32.84285 | -115.49751 | 25692 ft | 301 kts | 260° |
| 2026-04-24 03:17 | 32.83895 | -115.52188 | 25344 ft | 302 kts | 259° |
| 2026-04-24 03:18 | 32.83486 | -115.54666 | 24990 ft | 307 kts | 259° |
| 2026-04-24 03:18 | 32.83071 | -115.57178 | 24624 ft | 312 kts | 260° |
| 2026-04-24 03:18 | 32.82649 | -115.59728 | 24239 ft | 315 kts | 260° |
| 2026-04-24 03:18 | 32.82227 | -115.62292 | 23853 ft | 317 kts | 260° |
| 2026-04-24 03:19 | 32.81797 | -115.64910 | 23505 ft | 334 kts | 260° |
| 2026-04-24 03:19 | 32.81345 | -115.67667 | 23010 ft | 341 kts | 260° |
| 2026-04-24 03:19 | 32.80889 | -115.70432 | 22577 ft | 339 kts | 260° |
| 2026-04-24 03:19 | 32.80443 | -115.73142 | 22165 ft | 337 kts | 260° |
| 2026-04-24 03:20 | 32.79994 | -115.75867 | 21760 ft | 335 kts | 260° |
| 2026-04-24 03:20 | 32.79545 | -115.78587 | 21363 ft | 334 kts | 260° |
| 2026-04-24 03:20 | 32.79099 | -115.81289 | 20971 ft | 332 kts | 260° |
| 2026-04-24 03:20 | 32.78654 | -115.83977 | 20584 ft | 331 kts | 260° |
| 2026-04-24 03:21 | 32.78303 | -115.86675 | 20198 ft | 330 kts | 264° |
| 2026-04-24 03:21 | 32.78088 | -115.89377 | 19821 ft | 329 kts | 266° |
| 2026-04-24 03:21 | 32.77908 | -115.92096 | 19436 ft | 328 kts | 266° |
| 2026-04-24 03:21 | 32.77731 | -115.94802 | 19054 ft | 328 kts | 266° |
| 2026-04-24 03:22 | 32.77546 | -115.97507 | 18663 ft | 328 kts | 266° |
| 2026-04-24 03:22 | 32.77356 | -116.00195 | 18285 ft | 328 kts | 266° |
| 2026-04-24 03:22 | 32.77159 | -116.02904 | 17861 ft | 326 kts | 265° |
| 2026-04-24 03:22 | 32.76963 | -116.05535 | 17453 ft | 321 kts | 265° |
| 2026-04-24 03:23 | 32.76766 | -116.08158 | 17061 ft | 316 kts | 265° |
| 2026-04-24 03:23 | 32.76571 | -116.10738 | 16689 ft | 313 kts | 265° |
| 2026-04-24 03:23 | 32.76374 | -116.13331 | 16304 ft | 312 kts | 265° |
| 2026-04-24 03:23 | 32.76179 | -116.15892 | 15971 ft | 311 kts | 265° |
| 2026-04-24 03:24 | 32.75984 | -116.18444 | 15593 ft | 310 kts | 265° |
| 2026-04-24 03:24 | 32.75789 | -116.20999 | 15234 ft | 310 kts | 265° |
| 2026-04-24 03:24 | 32.75593 | -116.23551 | 14846 ft | 310 kts | 265° |
| 2026-04-24 03:24 | 32.75396 | -116.26098 | 14500 ft | 309 kts | 265° |
| 2026-04-24 03:25 | 32.75202 | -116.28605 | 14140 ft | 308 kts | 265° |
| 2026-04-24 03:25 | 32.75005 | -116.31147 | 13759 ft | 310 kts | 265° |
| 2026-04-24 03:25 | 32.74808 | -116.33693 | 13354 ft | 310 kts | 265° |
| 2026-04-24 03:25 | 32.74610 | -116.36238 | 12964 ft | 309 kts | 265° |
| 2026-04-24 03:26 | 32.74413 | -116.38773 | 12592 ft | 306 kts | 265° |
| 2026-04-24 03:26 | 32.74219 | -116.41265 | 12231 ft | 301 kts | 265° |
| 2026-04-24 03:26 | 32.74027 | -116.43725 | 11871 ft | 297 kts | 265° |
| 2026-04-24 03:26 | 32.73837 | -116.46150 | 11510 ft | 292 kts | 265° |
| 2026-04-24 03:27 | 32.73649 | -116.48535 | 11170 ft | 288 kts | 265° |
| 2026-04-24 03:27 | 32.73457 | -116.50891 | 10833 ft | 285 kts | 264° |
| 2026-04-24 03:27 | 32.73238 | -116.53217 | 10483 ft | 282 kts | 264° |
| 2026-04-24 03:27 | 32.73012 | -116.55505 | 10116 ft | 276 kts | 264° |
| 2026-04-24 03:28 | 32.72792 | -116.57751 | 9905 ft | 268 kts | 264° |
| 2026-04-24 03:28 | 32.72579 | -116.59941 | 9451 ft | 270 kts | 264° |
| 2026-04-24 03:28 | 32.72363 | -116.62156 | 9063 ft | 270 kts | 264° |
| 2026-04-24 03:28 | 32.72150 | -116.64347 | 8711 ft | 269 kts | 264° |
| 2026-04-24 03:29 | 32.71943 | -116.66550 | 8371 ft | 268 kts | 265° |
| 2026-04-24 03:29 | 32.71770 | -116.68752 | 8011 ft | 268 kts | 265° |
| 2026-04-24 03:29 | 32.71602 | -116.70941 | 7674 ft | 265 kts | 265° |
| 2026-04-24 03:29 | 32.71432 | -116.73118 | 7340 ft | 263 kts | 265° |
| 2026-04-24 03:30 | 32.71264 | -116.75282 | 7009 ft | 263 kts | 265° |
| 2026-04-24 03:30 | 32.71095 | -116.77437 | 6681 ft | 262 kts | 265° |
| 2026-04-24 03:30 | 32.70925 | -116.79592 | 6344 ft | 262 kts | 265° |
| 2026-04-24 03:30 | 32.70740 | -116.81744 | 5993 ft | 262 kts | 261° |
| 2026-04-24 03:31 | 32.70212 | -116.83809 | 5675 ft | 260 kts | 249° |
| 2026-04-24 03:31 | 32.69556 | -116.85800 | 5361 ft | 255 kts | 249° |
| 2026-04-24 03:31 | 32.68929 | -116.87737 | 5066 ft | 247 kts | 249° |
| 2026-04-24 03:31 | 32.68351 | -116.89580 | 4991 ft | 230 kts | 251° |
| 2026-04-24 03:32 | 32.67828 | -116.91337 | 4988 ft | 223 kts | 251° |
| 2026-04-24 03:32 | 32.67348 | -116.93087 | 4931 ft | 221 kts | 259° |
| 2026-04-24 03:32 | 32.67517 | -116.94858 | 4621 ft | 216 kts | 289° |
| 2026-04-24 03:32 | 32.67979 | -116.96528 | 4265 ft | 214 kts | 285° |
| 2026-04-24 03:33 | 32.68365 | -116.98218 | 3950 ft | 212 kts | 285° |
| 2026-04-24 03:33 | 32.68756 | -116.99892 | 3623 ft | 210 kts | 285° |
| 2026-04-24 03:33 | 32.69150 | -117.01550 | 3306 ft | 208 kts | 285° |
| 2026-04-24 03:33 | 32.69544 | -117.03190 | 2991 ft | 204 kts | 285° |
| 2026-04-24 03:34 | 32.69929 | -117.04785 | 2672 ft | 196 kts | 286° |
| 2026-04-24 03:34 | 32.70293 | -117.06294 | 2384 ft | 183 kts | 286° |
| 2026-04-24 03:34 | 32.70634 | -117.07707 | 2115 ft | 173 kts | 285° |
| 2026-04-24 03:34 | 32.70956 | -117.09043 | 1842 ft | 162 kts | 285° |
| 2026-04-24 03:35 | 32.71254 | -117.10279 | 1596 ft | 150 kts | 285° |
| 2026-04-24 03:35 | 32.71527 | -117.11405 | 1428 ft | 132 kts | 285° |
| 2026-04-24 03:35 | 32.71766 | -117.12396 | 1207 ft | 121 kts | 286° |
| 2026-04-24 03:35 | 32.71992 | -117.13337 | 1006 ft | 117 kts | 286° |
| 2026-04-24 03:36 | 32.72220 | -117.14275 | 855 ft | 120 kts | 286° |
| 2026-04-24 03:36 | 32.72452 | -117.15231 | 661 ft | 119 kts | 286° |
| 2026-04-24 03:36 | 32.72680 | -117.16172 | 453 ft | 118 kts | 287° |
| 2026-04-24 03:36 | 32.72901 | -117.17109 | 258 ft | 117 kts | 285° |
| 2026-04-24 03:37 | 32.73125 | -117.18028 | 64 ft | 117 kts | 287° |
| 2026-04-24 03:37 | 32.73351 | -117.18911 | 26 ft | 85 kts | 283° |
| 2026-04-24 03:37 | 32.73434 | -117.19296 | 25 ft | 42 kts | 284° |
| 2026-04-24 03:37 | 32.73419 | -117.19480 | 26 ft | 11 kts | 221° |
| 2026-04-24 03:38 | 32.73377 | -117.19470 | 27 ft | 0 kts | 136° |
| 2026-04-24 03:38 | 32.73371 | -117.19474 | 30 ft | 2 kts | 208° |
| 2026-04-24 03:38 | 32.73364 | -117.19490 | 26 ft | 3 kts | 272° |
| 2026-04-24 03:39 | 32.73376 | -117.19515 | 31 ft | 6 kts | 298° |
| 2026-04-24 03:39 | 32.73400 | -117.19576 | 27 ft | 9 kts | 288° |
| 2026-04-24 03:39 | 32.73418 | -117.19644 | 25 ft | 9 kts | 285° |
| 2026-04-24 03:39 | 32.73433 | -117.19712 | 28 ft | 8 kts | 285° |
| 2026-04-24 03:40 | 32.73449 | -117.19777 | 30 ft | 8 kts | 285° |
| 2026-04-24 03:40 | 32.73463 | -117.19841 | 30 ft | 8 kts | 285° |
| 2026-04-24 03:40 | 32.73477 | -117.19903 | 27 ft | 8 kts | 276° |
| 2026-04-24 03:40 | 32.73451 | -117.19952 | 26 ft | 7 kts | 206° |
| 2026-04-24 03:41 | 32.73407 | -117.19978 | 26 ft | 7 kts | 238° |
| 2026-04-24 03:41 | 32.73396 | -117.20037 | 25 ft | 7 kts | 255° |
| 2026-04-24 03:41 | 32.73392 | -117.20053 | 25 ft | 0 kts | 254° |